Cape Providence — 3EWQ — position and weather

sailwx.info

Track history (hours):
 
Tides and Currents Weather Stations Pressure Air Temp Water Temp Dewpoint Dewpoint Depression Visibility Wind Speed Wind Dir Waves Ship Positions

Cape Providence

Last reported at 2014-Jul-28 05:31 UTC. Time now 2014-Jul-28 06:23 UTC.
Position N 36°40' W 010°24'.

Length 292 m; draft 17 m.

Type: Cargo ship. MMSI: 372773000.

Date/timePositionNaut miles runAvg speedWind from/ knotsBaromVisibWave heightAir tempDewpointWater temp
2014-Jul-28 05:31N 36°40' W 010°24'10 9.9
2014-Jul-28 04:28N 36°44' W 010°36'9 9.7
2014-Jul-28 03:33N 36°47' W 010°47'13 9.9
2014-Jul-28 02:12N 36°50' W 011°03'710.0
2014-Jul-28 01:33N 36°51' W 011°11'11 9.9
2014-Jul-28 00:25N 36°53' W 011°25'1310.2
2014-Jul-27 23:10N 36°56' W 011°40'87 9.9
2014-Jul-27 14:20N 37°05' W 013°29'21 9.5
2014-Jul-27 12:05N 37°06' W 013°56'34 9.6
2014-Jul-27 08:29N 37°09' W 014°39'434 9.6
2014-Jul-25 11:08N 37°35' W 023°43'5 9.3
2014-Jul-25 10:34N 37°35' W 023°50'9 9.2
2014-Jul-25 09:34N 37°36' W 024°02'9 9.3
2014-Jul-25 08:34N 37°36' W 024°13'10 9.7
2014-Jul-25 07:34N 37°36' W 024°26'10 9.6
2014-Jul-25 06:34N 37°36' W 024°38'9 9.2
2014-Jul-25 05:34N 37°37' W 024°49'9 9.4
2014-Jul-25 04:34N 37°37' W 025°01'10 9.5
2014-Jul-25 03:33N 37°37' W 025°13'10 9.7
2014-Jul-25 02:34N 37°38' W 025°25'9 9.1
2014-Jul-25 01:34N 37°42' W 025°36'3 2.6
2014-Jul-25 00:32N 37°44' W 025°38'0 0.1
2014-Jul-24 23:32N 37°44' W 025°38'0 0.1
2014-Jul-24 22:32N 37°44' W 025°38'0 0.1
2014-Jul-24 21:32N 37°44' W 025°38'0 0.2
2014-Jul-24 20:32N 37°44' W 025°38'0 0.1
2014-Jul-24 19:32N 37°44' W 025°38'0 0.1
2014-Jul-24 18:32N 37°44' W 025°38'0 0.2
2014-Jul-24 17:32N 37°44' W 025°38'0 0.1
2014-Jul-24 16:32N 37°44' W 025°38'0 0.0
2014-Jul-24 15:32N 37°44' W 025°38'0 0.1
2014-Jul-24 14:32N 37°44' W 025°38'0 0.2
2014-Jul-24 13:33N 37°44' W 025°38'0 0.5
2014-Jul-24 12:33N 37°43' W 025°39'1 0.9
2014-Jul-24 11:34N 37°43' W 025°39'5 4.7
2014-Jul-24 10:33N 37°40' W 025°44'9 9.2
2014-Jul-24 09:34N 37°36' W 025°55'9 9.3
2014-Jul-24 08:33N 37°33' W 026°06'10 9.9
2014-Jul-24 07:33N 37°28' W 026°17'9 9.4
2014-Jul-24 06:34N 37°24' W 026°27'10 9.6
2014-Jul-24 05:33N 37°20' W 026°39'10 9.8
2014-Jul-24 04:33N 37°17' W 026°50'9 9.3
2014-Jul-24 03:33N 37°13' W 027°01'9 9.3
2014-Jul-24 02:33N 37°10' W 027°12'10 9.6
2014-Jul-24 01:33N 37°07' W 027°23'1110.1
2014-Jul-24 00:30N 37°03' W 027°36'1010.3
2014-Jul-23 23:31N 36°60' W 027°48'1010.2
2014-Jul-23 22:34N 36°56' W 027°59'1110.5
2014-Jul-23 21:33N 36°53' W 028°12'1211.8
2014-Jul-23 20:33N 36°48' W 028°25'1211.9
2014-Jul-23 19:33N 36°44' W 028°39'1211.8
2014-Jul-23 18:33N 36°39' W 028°53'1211.9
2014-Jul-23 17:33N 36°35' W 029°06'1111.4
2014-Jul-23 16:33N 36°31' W 029°19'1111.1
2014-Jul-23 15:33N 36°27' W 029°32'1111.4
2014-Jul-23 14:33N 36°22' W 029°45'1211.2
2014-Jul-23 13:31N 36°17' W 029°58'1110.9
2014-Jul-23 12:31N 36°13' W 030°11'1111.2
2014-Jul-23 11:30N 36°08' W 030°23'1310.9
2014-Jul-23 10:17N 36°02' W 030°38'  
Track history (hours):
 
Tides and Currents Weather Stations Pressure Air Temp Water Temp Dewpoint Dewpoint Depression Visibility Wind Speed Wind Dir Waves Ship Positions

Cape Providence

Last reported at 2014-Jul-28 05:31 UTC. Time now 2014-Jul-28 06:23 UTC.
Position N 36°40' W 010°24'.

Length 292 m; draft 17 m.

Type: Cargo ship. MMSI: 372773000.

Date/timePositionNaut miles runAvg speedWind from/ knotsBaromVisibWave heightAir tempDewpointWater temp
2014-Jul-28 05:31N 36°40' W 010°24'10 9.9
2014-Jul-28 04:28N 36°44' W 010°36'9 9.7
2014-Jul-28 03:33N 36°47' W 010°47'13 9.9
2014-Jul-28 02:12N 36°50' W 011°03'710.0
2014-Jul-28 01:33N 36°51' W 011°11'11 9.9
2014-Jul-28 00:25N 36°53' W 011°25'1310.2
2014-Jul-27 23:10N 36°56' W 011°40'87 9.9
2014-Jul-27 14:20N 37°05' W 013°29'21 9.5
2014-Jul-27 12:05N 37°06' W 013°56'34 9.6
2014-Jul-27 08:29N 37°09' W 014°39'434 9.6
2014-Jul-25 11:08N 37°35' W 023°43'5 9.3
2014-Jul-25 10:34N 37°35' W 023°50'9 9.2
2014-Jul-25 09:34N 37°36' W 024°02'9 9.3
2014-Jul-25 08:34N 37°36' W 024°13'10 9.7
2014-Jul-25 07:34N 37°36' W 024°26'10 9.6
2014-Jul-25 06:34N 37°36' W 024°38'9 9.2
2014-Jul-25 05:34N 37°37' W 024°49'9 9.4
2014-Jul-25 04:34N 37°37' W 025°01'10 9.5
2014-Jul-25 03:33N 37°37' W 025°13'10 9.7
2014-Jul-25 02:34N 37°38' W 025°25'9 9.1
2014-Jul-25 01:34N 37°42' W 025°36'3 2.6
2014-Jul-25 00:32N 37°44' W 025°38'0 0.1
2014-Jul-24 23:32N 37°44' W 025°38'0 0.1
2014-Jul-24 22:32N 37°44' W 025°38'0 0.1
2014-Jul-24 21:32N 37°44' W 025°38'0 0.2
2014-Jul-24 20:32N 37°44' W 025°38'0 0.1
2014-Jul-24 19:32N 37°44' W 025°38'0 0.1
2014-Jul-24 18:32N 37°44' W 025°38'0 0.2
2014-Jul-24 17:32N 37°44' W 025°38'0 0.1
2014-Jul-24 16:32N 37°44' W 025°38'0 0.0
2014-Jul-24 15:32N 37°44' W 025°38'0 0.1
2014-Jul-24 14:32N 37°44' W 025°38'0 0.2
2014-Jul-24 13:33N 37°44' W 025°38'0 0.5
2014-Jul-24 12:33N 37°43' W 025°39'1 0.9
2014-Jul-24 11:34N 37°43' W 025°39'5 4.7
2014-Jul-24 10:33N 37°40' W 025°44'9 9.2
2014-Jul-24 09:34N 37°36' W 025°55'9 9.3
2014-Jul-24 08:33N 37°33' W 026°06'10 9.9
2014-Jul-24 07:33N 37°28' W 026°17'9 9.4
2014-Jul-24 06:34N 37°24' W 026°27'10 9.6
2014-Jul-24 05:33N 37°20' W 026°39'10 9.8
2014-Jul-24 04:33N 37°17' W 026°50'9 9.3
2014-Jul-24 03:33N 37°13' W 027°01'9 9.3
2014-Jul-24 02:33N 37°10' W 027°12'10 9.6
2014-Jul-24 01:33N 37°07' W 027°23'1110.1
2014-Jul-24 00:30N 37°03' W 027°36'1010.3
2014-Jul-23 23:31N 36°60' W 027°48'1010.2
2014-Jul-23 22:34N 36°56' W 027°59'1110.5
2014-Jul-23 21:33N 36°53' W 028°12'1211.8
2014-Jul-23 20:33N 36°48' W 028°25'1211.9
2014-Jul-23 19:33N 36°44' W 028°39'1211.8
2014-Jul-23 18:33N 36°39' W 028°53'1211.9
2014-Jul-23 17:33N 36°35' W 029°06'1111.4
2014-Jul-23 16:33N 36°31' W 029°19'1111.1
2014-Jul-23 15:33N 36°27' W 029°32'1111.4
2014-Jul-23 14:33N 36°22' W 029°45'1211.2
2014-Jul-23 13:31N 36°17' W 029°58'1110.9
2014-Jul-23 12:31N 36°13' W 030°11'1111.2
2014-Jul-23 11:30N 36°08' W 030°23'1310.9
2014-Jul-23 10:17N 36°02' W 030°38'  

Dump ship's entire track history